Weather observations for the past three days for
Baltimore / Martin
Imperial (Metric)
Date Time (edt) Wind (mph) Vis. (mi.) Weather Sky Cond. Temperature (ºF) Relative Humidity Wind Chill (°F) Heat Index (°F) Pressure Precipitation (in)
Air Dwpt 6 hour altimeter (in) sea level (mb) 1 hr 3 hr 6 hr
Max. Min.
09 09:46 W 5 10.00 Overcast OVC100 62.6 46.4 56% 29.9 0.0
09 08:46 SW 6 10.00 Overcast OVC110 62.6 48.2 60% 29.9 0.0
09 07:47 S 12 10.00 Mostly Cloudy BKN120 60.8 51.8 72% 29.9 0.0
09 06:54 S 12 10.00 Overcast OVC120 60.8 50 68% 29.89 0.0
09 05:54 S 10 10.00 Partly Cloudy SCT120 60.8 44.6 55% 29.88 0.0
09 05:15 S 5 10.00 Fair CLR 59.7 44.2 57% 29.88 0.0
09 04:55 S 6 10.00 Partly Cloudy SCT120 59.7 43.2 54% 29.88 0.0
09 04:35 SW 5 10.00 Partly Cloudy SCT120 60.1 43 53% 29.89 0.0
09 04:15 SW 6 10.00 Partly Cloudy SCT120 59.7 43.7 56% 29.9 0.0
09 03:55 S 5 10.00 Fair CLR 59.9 43.5 55% 29.9 0.0
09 03:35 Calm 10.00 Fair CLR 59.5 43.9 56% 29.9 0.0
09 03:15 S 6 10.00 Fair CLR 59.2 45.5 61% 29.9 0.0
09 02:55 SW 6 10.00 Fair CLR 59 46.9 64% 29.9 0.0
09 02:35 S 6 10.00 Fair CLR 59 48.2 68% 29.91 0.0
09 02:15 S 5 10.00 Fair CLR 58.3 47.8 68% 29.91 0.0
09 01:55 S 5 10.00 Fair CLR 58.1 47.5 63.5 57.6 68% 29.92 0.0
09 01:35 S 5 10.00 Fair CLR 58.1 47.7 68% 29.92 0.0
09 01:15 S 5 10.00 Fair CLR 59 49.1 70% 29.92 0.0
09 00:55 S 7 10.00 Fair CLR 57.6 48.7 73% 29.92 0.0
09 00:35 S 3 10.00 Fair CLR 59 47.3 65% 29.92 0.0
09 00:15 SW 6 10.00 Fair CLR 59.4 48 66% 29.92 0.0
08 23:55 SW 7 10.00 Fair CLR 59.9 49.1 68% 29.92 0.0
08 23:35 S 9 10.00 Fair CLR 60.1 49.6 69% 29.93 0.0
08 23:15 S 6 10.00 Fair CLR 60.4 49.8 68% 29.93 0.0
08 22:55 S 7 10.00 Partly Cloudy SCT120 60.8 49.8 67% 29.93 0.0
08 22:35 S 8 10.00 Mostly Cloudy BKN120 60.8 49.3 66% 29.93 0.0
08 22:15 S 5 10.00 Overcast OVC120 61.7 48.9 63% 29.93 0.0
08 21:45 S 6 10.00 Overcast OVC110 62.6 48.2 60% 29.93 0.0
08 21:16 SE 3 10.00 Mostly Cloudy BKN100 62.8 45.9 54% 29.9 0.0
08 20:45 SW 7 10.00 Overcast OVC110 64.4 44.6 49% 29.91 0.0
08 19:54 S 12 10.00 Mostly Cloudy BKN100 64.4 44.6 49% 29.9 0.0
08 18:45 S 8 10.00 Overcast OVC110 66.2 46.4 49% 29.88 0.0
08 17:45 W 6 10.00 Mostly Cloudy BKN095 69.8 28.4 21% 29.88 0.0
08 16:45 W 12 G 21 10.00 Partly Cloudy SCT095 SCT120 71.6 26.6 19% 29.88 0.0
08 15:54 W 12 G 16 10.00 Mostly Cloudy BKN095 71.6 28.4 20% 29.89 0.0
08 14:54 W 9 G 23 10.00 Mostly Cloudy BKN095 69.8 28.4 21% 29.92 0.0
08 13:45 W 9 G 24 10.00 Fair CLR 69.8 28.4 21% 29.94 0.0
08 12:55 W 12 G 20 10.00 Partly Cloudy SCT085 68 30.2 24% 29.95 0.0
08 11:45 W 8 G 16 10.00 Fair CLR 66.2 32 28% 29.98 0.0
08 10:58 NW 8 G 18 10.00 Fair CLR 64.4 28.4 26% 29.99 0.0
08 09:55 SW 5 10.00 Partly Cloudy SCT100 62.6 32 32% 30 0.0
08 07:45 Calm 10.00 Fair CLR 51.8 37.4 58% 30 0.0
08 06:47 Calm 10.00 Fair CLR 46.4 35.6 66% 29.99 0.0
08 05:45 Calm 10.00 Fair CLR 42.8 35.6 76% 29.97 0.0
08 05:15 Calm 10.00 Fair CLR 46.8 34.3 62% 29.96 0.0
08 04:55 Calm 10.00 Fair CLR 46.2 34 62% 29.96 0.0
08 04:35 Calm 10.00 Fair CLR 46 33.8 62% 29.95 0.0
08 04:15 N 6 10.00 Fair CLR 47.8 34.2 59% 46 29.95 0.0
08 03:55 N 7 10.00 Fair CLR 51.1 34.3 53% 29.94 0.0
08 03:35 N 6 10.00 Fair CLR 50.7 37.2 60% 29.93 0.0
08 03:15 N 6 10.00 Fair CLR 49.1 39.7 70% 47 29.92 0.0
08 02:55 NW 5 10.00 Fair CLR 48.6 42.6 80% 47 29.91 0.0
08 02:35 NW 5 10.00 Fair CLR 49.5 43 78% 48 29.91 0.0
08 02:15 NW 5 10.00 Fair CLR 49.5 42.6 77% 48 29.9 0.0
08 01:55 NW 6 10.00 Fair CLR 52.3 43.7 58.3 51.8 73% 29.9 0.0
08 01:35 NW 5 10.00 Fair CLR 52.2 43.7 73% 29.89 0.0
08 01:15 W 3 10.00 Fair CLR 53.8 44.2 70% 29.89 0.0
08 00:55 W 5 10.00 Fair CLR 54.1 44.1 69% 29.88 0.0
08 00:35 W 6 10.00 Fair CLR 54.1 44.1 69% 29.88 0.0
08 00:15 W 5 10.00 Fair CLR 54.5 44.6 69% 29.88 0.0
07 23:55 W 3 10.00 Partly Cloudy SCT100 54.9 44.2 68% 29.88 0.0
07 23:35 W 7 10.00 Fair CLR 55.4 43.9 65% 29.87 0.0
07 23:15 W 8 10.00 Partly Cloudy SCT110 56.3 43.7 63% 29.87 0.0
07 22:55 W 7 10.00 Mostly Cloudy SCT090 BKN110 56.7 43.3 61% 29.87 0.0
07 22:35 W 7 10.00 Overcast OVC090 57.2 42.8 59% 29.87 0.0
07 22:15 SW 3 10.00 Overcast OVC100 57.2 43 59% 29.87 0.0
07 21:53 W 7 10.00 Partly Cloudy SCT110 57.2 42.8 59% 29.87 0.0
07 20:47 W 6 10.00 Fair CLR 57.2 41 55% 29.84 0.0
07 19:46 SW 6 10.00 Fair CLR 59 41 51% 29.82 0.0
07 18:46 S 7 10.00 Fair CLR 60.8 39.2 45% 29.81 0.0
07 17:46 S 8 10.00 Fair CLR 62.6 42.8 49% 29.81 0.0
07 16:47 S 10 10.00 Fair CLR 62.6 42.8 49% 29.81 0.0
07 15:46 S 10 10.00 Fair CLR 62.6 41 45% 29.82 0.0
07 14:45 S 8 10.00 Fair CLR 62.6 41 45% 29.84 0.0
07 13:54 S 9 10.00 Fair CLR 60.8 42.8 52% 29.86 0.0
07 12:50 Calm 10.00 Mostly Cloudy BKN110 59 37.4 45% 29.88 0.0
07 11:45 Calm 10.00 Overcast OVC080 57.2 35.6 44% 29.91 0.0
07 10:45 N 3 10.00 Overcast OVC070 55.4 37.4 51% 29.92 0.0
07 09:49 N 5 10.00 Overcast OVC070 55.4 39.2 55% 29.94 0.0
07 08:49 N 6 10.00 Overcast OVC060 53.6 42.8 67% 29.93 0.0
07 07:46 N 6 10.00 Overcast OVC060 53.6 48.2 82% 29.92 0.0
07 06:50 NW 3 10.00 Overcast OVC050 55.4 50 82% 29.91 0.0
07 05:54 Calm 10.00 Overcast OVC050 53.6 51.8 94% 29.9 0.0
07 05:15 Calm 10.00 Overcast OVC050 53.8 51.1 91% 29.9 0.0
07 04:55 Calm 10.00 Light Drizzle OVC048 54 50.9 89% 29.89 0.0 0.01
07 04:35 Calm 10.00 Rain OVC048 54 50 87% 29.88 0.0
07 04:15 Calm 10.00 Overcast OVC048 54.1 49.5 84% 29.88 0.0
07 03:55 Calm 10.00 Overcast SCT023 SCT028 OVC046 54.7 49.1 82% 29.87 0.0
07 03:35 N 6 10.00 Overcast SCT021 SCT028 OVC044 54.9 50 84% 29.87 0.0
07 03:15 N 8 10.00 Rain SCT015 SCT020 OVC044 55.9 51.3 84% 29.87 0.0
07 02:55 N 7 10.00 Overcast SCT015 OVC046 56.5 52.7 87% 29.86 0.0 0.01
07 02:35 N 7 10.00 Overcast OVC044 56.8 53.6 89% 29.87 0.0 0.01
07 02:15 N 5 10.00 Light Drizzle OVC044 56.7 53.8 90% 29.86 0.0 0.01
07 01:55 N 3 10.00 Light Rain SCT031 OVC046 56.8 53.6 69.3 56.8 89% 29.87 0.0 0.15 0.15
07 01:35 N 5 10.00 Light Rain SCT028 BKN040 OVC060 56.8 53.8 90% 29.88 0.0 0.14
07 01:15 NW 14 G 18 5.00 Heavy Rain SCT030 OVC041 58.1 52.9 83% 29.89 0.0 0.09
07 00:55 N 13 10.00 Overcast SCT022 SCT030 OVC041 60.8 50.5 69% 29.86 0.0
07 00:35 N 9 10.00 Light Rain SCT022 SCT030 OVC041 62.4 53.2 72% 29.86 0.0
07 00:15 N 7 10.00 Overcast SCT019 OVC041 63.5 52.9 69% 29.85 0.0
06 23:55 N 3 10.00 Drizzle SCT019 OVC041 64 55.9 75% 29.83 0.0
06 23:15 N 10 10.00 Overcast SCT020 OVC037 66.4 56.5 71% 29.83 0.0
06 22:55 N 8 10.00 Overcast SCT029 OVC037 67.1 56.8 70% 29.83 0.0
06 22:35 NW 8 10.00 Overcast SCT023 OVC029 67.1 57 70% 29.82 0.0
06 22:15 NW 13 10.00 Overcast OVC025 68 58.5 72% 29.82 0.0
06 21:45 Calm 10.00 Overcast BKN038 OVC047 69.8 59 69% 29.82 0.0
06 20:54 Calm 10.00 Overcast SCT031 BKN048 OVC050 69.8 59 69% 29.81 0.0
06 17:52 W 9 10.00 Partly Cloudy SCT042 SCT070 SCT100 71.6 59 65% 29.79 0.0
06 16:45 W 9 10.00 Overcast OVC029 71.6 57.2 61% 29.78 0.0
06 14:54 SW 9 10.00 Overcast OVC024 69.8 59 69% 29.8 0.0
06 13:55 SW 10 G 16 10.00 Overcast OVC020 68 59 73% 29.81 0.0
06 12:45 SW 8 10.00 Overcast OVC018 64.4 59 83% 29.82 0.0
06 11:48 S 10 6.00 Light Drizzle BKN017 OVC060 64.4 60.8 88% 29.83 0.0
06 10:45 S 7 6.00 Light Rain BKN060 OVC100 64.4 57.2 78% 29.85 0.0
Date Time (edt) Wind (mph) Vis. (mi.) Weather Sky Cond. Air Dwpt Max. Min. Relative Humidity Wind Chill (°F) Heat Index (°F) altimeter (in) sea level (mb) 1 hr 3 hr 6 hr
6 hour
Temperature (ºF) Pressure Precipitation (in)